Time;durP1;ratioP1;P1;durP2;ratioP2;P2;SDS_P1;SDS_P2;PMS_P1;PMS_P2;Temp;Humidity;BMP_temperature;BMP_pressure;BME280_temperature;BME280_humidity;BME280_pressure;Samples;Min_cycle;Max_cycle;Signal;HPM_P1;HPM_P2
2022/05/18 00:00:50;;;;;;;16.30;11.70;;;;;;;-145.18;100.00;46560.78;4980205;28;20046;-77
2022/05/18 00:03:20;;;;;;;16.10;12.63;;;;;;;-145.18;100.00;46558.81;4995073;28;20081;-77
2022/05/18 00:05:45;;;;;;;14.50;11.60;;;;;;;-145.18;100.00;46560.78;4996932;28;20031;-77
2022/05/18 00:08:11;;;;;;;23.80;16.10;;;;;;;-145.18;100.00;46636.94;4976267;28;20561;-77
2022/05/18 00:10:39;;;;;;;24.20;16.30;;;;;;;-145.18;100.00;46660.41;4976468;28;20043;-77
2022/05/18 00:13:06;;;;;;;17.10;12.10;;;;;;;-145.18;100.00;46640.88;4974606;28;20507;-77
2022/05/18 00:15:32;;;;;;;18.50;12.57;;;;;;;-145.18;100.00;46640.88;4976629;28;20081;-76
2022/05/18 00:17:58;;;;;;;13.27;10.17;;;;;;;-145.18;100.00;46629.13;4976423;28;20712;-77
2022/05/18 00:20:24;;;;;;;11.20;8.10;;;;;;;-145.18;100.00;46619.38;4976033;28;20042;-77
2022/05/18 00:22:52;;;;;;;10.93;8.90;;;;;;;-145.18;100.00;46613.50;4976898;28;20042;-77
2022/05/18 00:25:20;;;;;;;16.13;10.83;;;;;;;-145.18;100.00;46627.19;4976947;28;20027;-77
2022/05/18 00:27:45;;;;;;;17.33;12.13;;;;;;;-145.18;100.00;46656.50;4976997;28;20088;-77
2022/05/18 00:30:13;;;;;;;18.10;13.10;;;;;;;-145.18;100.00;46642.81;4977247;28;20054;-77
2022/05/18 00:32:38;;;;;;;18.30;12.67;;;;;;;-145.18;100.00;46621.31;4976920;28;20118;-77
2022/05/18 00:35:04;;;;;;;16.53;11.33;;;;;;;-145.18;100.00;46629.13;4976879;28;20045;-77
2022/05/18 00:37:30;;;;;;;16.33;12.17;;;;;;;-145.18;100.00;46660.41;4975860;28;20069;-77
2022/05/18 00:39:55;;;;;;;16.60;13.03;;;;;;;-145.18;100.00;46636.94;4976138;28;20059;-78
2022/05/18 00:42:25;;;;;;;15.90;13.00;;;;;;;-145.18;100.00;46570.53;4976431;28;20401;-78
2022/05/18 00:44:50;;;;;;;18.27;12.43;;;;;;;-145.18;100.00;46613.50;4976754;28;20035;-78
2022/05/18 00:47:16;;;;;;;17.97;14.03;;;;;;;-145.18;100.00;46619.38;4975652;28;20050;-78
2022/05/18 00:49:46;;;;;;;19.63;15.17;;;;;;;-145.18;100.00;46654.53;4976206;28;20042;-78
2022/05/18 00:52:14;;;;;;;26.87;16.73;;;;;;;-145.18;100.00;46660.41;4973413;28;20393;-78
2022/05/18 00:54:42;;;;;;;27.23;17.43;;;;;;;-145.18;100.00;46640.88;4973887;28;20038;-79
2022/05/18 00:57:13;;;;;;;24.83;18.90;;;;;;;-145.18;100.00;46658.44;4973253;28;20031;-78
2022/05/18 01:00:00;;;;;;;26.87;19.50;;;;;;;-145.18;100.00;46625.22;4972838;28;20555;-77
2022/05/18 01:02:29;;;;;;;28.67;21.33;;;;;;;-145.18;100.00;46638.91;4973137;28;20035;-78
2022/05/18 01:04:58;;;;;;;29.73;20.20;;;;;;;-145.18;100.00;46660.41;4973660;28;20062;-78
2022/05/18 01:07:29;;;;;;;29.77;19.97;;;;;;;-145.18;100.00;46676.03;4972803;28;20057;-78
2022/05/18 01:09:55;;;;;;;31.87;20.63;;;;;;;-145.18;100.00;46660.41;4973923;28;20047;-78
2022/05/18 01:12:22;;;;;;;28.30;21.30;;;;;;;-145.18;100.00;46654.53;4983011;28;20107;-77
2022/05/18 01:14:50;;;;;;;35.20;23.97;;;;;;;-145.18;100.00;46660.41;4991814;28;20038;-77
2022/05/18 01:17:19;;;;;;;33.63;22.17;;;;;;;-145.18;100.00;46660.41;4992577;28;20502;-78
2022/05/18 01:19:49;;;;;;;32.60;22.07;;;;;;;-145.18;100.00;46642.81;4992898;28;20081;-78
2022/05/18 01:22:29;;;;;;;32.57;22.93;;;;;;;-145.18;100.00;46640.88;4992679;28;20038;-78
2022/05/18 01:25:22;;;;;;;29.30;21.27;;;;;;;-145.18;100.00;46631.09;4992523;28;20105;-78
2022/05/18 01:27:48;;;;;;;32.40;22.87;;;;;;;-145.18;100.00;46660.41;4992592;28;20463;-78
2022/05/18 01:30:14;;;;;;;29.67;22.77;;;;;;;-145.18;100.00;46644.78;4992753;28;20046;-78
2022/05/18 01:32:44;;;;;;;32.57;23.57;;;;;;;-145.18;100.00;46664.31;4992646;28;20038;-78
2022/05/18 01:35:12;;;;;;;35.97;25.23;;;;;;;-145.18;100.00;46683.84;4992544;28;20041;-79
2022/05/18 01:37:38;;;;;;;36.00;25.80;;;;;;;-145.18;100.00;46681.88;4991637;28;20018;-78
2022/05/18 01:40:23;;;;;;;38.07;26.80;;;;;;;-145.18;100.00;46685.78;4993020;28;20518;-79
2022/05/18 01:42:59;;;;;;;42.38;27.88;;;;;;;-145.18;100.00;46676.03;4942575;28;20093;-79
2022/05/18 01:45:25;;;;;;;40.03;27.93;;;;;;;-145.18;100.00;46670.16;4992289;28;20037;-79
2022/05/18 01:47:50;;;;;;;45.13;28.10;;;;;;;-145.18;100.00;46670.16;4991518;28;20483;-79
2022/05/18 01:50:24;;;;;;;36.53;27.73;;;;;;;-145.18;100.00;46674.06;4974975;28;20034;-79
2022/05/18 01:52:49;;;;;;;40.77;26.90;;;;;;;-145.18;100.00;46676.03;4991897;28;20040;-78
2022/05/18 01:55:17;;;;;;;35.87;27.70;;;;;;;-145.18;100.00;46674.06;4974029;28;20045;-79
2022/05/18 01:57:42;;;;;;;42.07;27.90;;;;;;;-145.18;100.00;46679.94;4990937;28;20039;-79
2022/05/18 02:02:50;;;;;;;36.20;26.67;;;;;;;-145.18;100.00;46676.03;5152327;22;20051;-79
2022/05/18 02:05:15;;;;;;;36.73;25.67;;;;;;;-145.18;100.00;46677.97;4974015;28;20039;-79
2022/05/18 02:07:41;;;;;;;32.47;24.77;;;;;;;-145.18;100.00;46683.84;4979645;28;20494;-79
2022/05/18 02:10:07;;;;;;;37.00;25.10;;;;;;;-145.18;100.00;46674.06;4972526;28;20479;-79
2022/05/18 02:12:32;;;;;;;32.03;24.13;;;;;;;-145.18;100.00;46687.75;4972030;28;20537;-79
2022/05/18 02:14:58;;;;;;;30.50;23.03;;;;;;;-145.18;100.00;46679.94;4972529;28;20034;-79
2022/05/18 02:17:25;;;;;;;33.43;24.07;;;;;;;-145.18;100.00;46676.03;4972186;28;20074;-79
2022/05/18 02:19:51;;;;;;;33.73;23.80;;;;;;;-145.18;100.00;46679.94;4972220;28;20050;-77
2022/05/18 02:22:16;;;;;;;35.33;23.13;;;;;;;-145.18;100.00;46674.06;4972138;28;20033;-79
2022/05/18 02:24:41;;;;;;;37.40;25.10;;;;;;;-145.18;100.00;46677.97;4972268;28;20035;-79
2022/05/18 02:27:07;;;;;;;35.20;23.73;;;;;;;-145.18;100.00;46674.06;4971615;28;20145;-79
2022/05/18 02:29:33;;;;;;;31.00;23.40;;;;;;;-145.18;100.00;46674.06;4984637;28;20055;-79
2022/05/18 02:31:59;;;;;;;35.17;24.20;;;;;;;-145.18;100.00;46679.94;4972004;28;20084;-79
2022/05/18 02:34:24;;;;;;;37.60;24.77;;;;;;;-145.18;100.00;46674.06;4972534;28;20507;-79
2022/05/18 02:36:49;;;;;;;36.83;24.70;;;;;;;-145.18;100.00;46676.03;4971589;28;20035;-78
2022/05/18 02:39:15;;;;;;;34.93;24.73;;;;;;;-145.18;100.00;46676.03;4971724;28;20038;-78
2022/05/18 02:41:41;;;;;;;31.63;23.60;;;;;;;-145.18;100.00;46681.88;4971717;28;20447;-79
2022/05/18 02:44:07;;;;;;;29.77;23.03;;;;;;;-145.18;100.00;46683.84;4972022;28;20126;-79
2022/05/18 02:46:32;;;;;;;31.63;24.53;;;;;;;-145.18;100.00;46679.94;4971896;28;20085;-79
2022/05/18 02:48:57;;;;;;;39.57;24.47;;;;;;;-145.18;100.00;46676.03;4971588;28;20113;-79
2022/05/18 02:51:23;;;;;;;40.57;24.83;;;;;;;-145.18;100.00;46677.97;4971872;28;20045;-79
2022/05/18 02:53:48;;;;;;;48.23;26.13;;;;;;;-145.18;100.00;46677.97;4953820;28;20782;-79
2022/05/18 02:56:19;;;;;;;40.87;25.17;;;;;;;-145.18;100.00;46681.88;4972136;28;20041;-79
2022/05/18 02:58:48;;;;;;;41.07;26.10;;;;;;;-145.18;100.00;46687.75;4971252;28;21904;-78
2022/05/18 03:01:22;;;;;;;40.77;26.87;;;;;;;-145.18;100.00;46685.78;4971603;28;20399;-79
2022/05/18 03:03:48;;;;;;;39.13;25.70;;;;;;;-145.18;100.00;46683.84;4970922;28;20137;-78
2022/05/18 03:06:17;;;;;;;39.97;26.93;;;;;;;-145.18;100.00;46676.03;4971884;28;20109;-79
2022/05/18 03:08:44;;;;;;;40.77;25.70;;;;;;;-145.18;100.00;46683.84;4971182;28;20062;-78
2022/05/18 03:11:11;;;;;;;36.20;24.33;;;;;;;-145.18;100.00;46679.94;4971520;28;20629;-78
2022/05/18 03:13:36;;;;;;;41.37;25.83;;;;;;;-145.18;100.00;46689.69;4971104;28;20492;-78
2022/05/18 03:16:02;;;;;;;39.37;25.17;;;;;;;-145.18;100.00;46679.94;4956528;28;20038;-78
2022/05/18 03:18:28;;;;;;;38.43;24.10;;;;;;;-145.18;100.00;46677.97;4971221;28;20106;-78
2022/05/18 03:23:39;;;;;;;39.23;24.60;;;;;;;-145.18;100.00;46687.75;4971231;28;20041;-79
2022/05/18 03:26:14;;;;;;;37.27;24.73;;;;;;;-145.18;100.00;46674.06;4971512;28;20041;-78
2022/05/18 03:28:42;;;;;;;42.85;25.42;;;;;;;-145.18;100.00;46679.94;4970757;28;20391;-79
2022/05/18 03:31:08;;;;;;;40.83;24.80;;;;;;;-145.18;100.00;46679.94;4971321;28;20031;-79
2022/05/18 03:33:35;;;;;;;42.83;25.27;;;;;;;-145.18;100.00;46689.69;4970939;28;20046;-80
2022/05/18 03:36:01;;;;;;;35.53;24.87;;;;;;;-145.18;100.00;46679.94;4971216;28;20122;-80
2022/05/18 03:38:27;;;;;;;34.57;24.30;;;;;;;-145.18;100.00;46677.97;4953634;28;20045;-80
2022/05/18 03:40:52;;;;;;;36.97;24.77;;;;;;;-145.18;100.00;46685.78;4971110;28;20470;-80
2022/05/18 03:43:19;;;;;;;33.17;24.43;;;;;;;-145.18;100.00;46681.88;4953652;28;20081;-80
2022/05/18 03:45:45;;;;;;;35.77;24.23;;;;;;;-145.18;100.00;46679.94;4970945;28;20035;-80
2022/05/18 03:48:13;;;;;;;32.70;23.40;;;;;;;-145.18;100.00;46687.75;4970974;28;20435;-79
2022/05/18 03:50:39;;;;;;;34.70;23.53;;;;;;;-145.18;100.00;46679.94;4971016;28;20034;-79
2022/05/18 03:53:06;;;;;;;35.40;23.90;;;;;;;-145.18;100.00;46677.97;4970692;28;20431;-80
2022/05/18 03:55:32;;;;;;;37.13;23.87;;;;;;;-145.18;100.00;46685.78;4971043;28;20085;-79
2022/05/18 03:57:57;;;;;;;33.20;26.20;;;;;;;-145.18;100.00;46668.22;4970491;28;20043;-79
2022/05/18 04:00:23;;;;;;;40.03;27.33;;;;;;;-145.18;100.00;46662.34;4971009;28;20042;-79
2022/05/18 04:02:49;;;;;;;44.00;26.03;;;;;;;-145.18;100.00;46660.41;4970055;28;20059;-79
2022/05/18 04:05:16;;;;;;;37.23;26.13;;;;;;;-145.18;100.00;46664.31;4970972;28;20090;-79
2022/05/18 04:07:41;;;;;;;38.23;26.77;;;;;;;-145.18;100.00;46656.50;4970628;28;20039;-79
2022/05/18 04:10:07;;;;;;;43.33;28.47;;;;;;;-145.18;100.00;46654.53;4970965;28;20047;-79
2022/05/18 04:12:34;;;;;;;35.80;25.73;;;;;;;-145.18;100.00;46656.50;4970437;28;20034;-79
2022/05/18 04:15:00;;;;;;;39.20;27.60;;;;;;;-145.18;100.00;46656.50;4970845;28;20039;-79
2022/05/18 04:17:26;;;;;;;36.47;26.67;;;;;;;-145.18;100.00;46652.59;4970516;28;20175;-79
2022/05/18 04:19:52;;;;;;;37.03;26.43;;;;;;;-145.18;100.00;46650.63;4970654;28;20104;-79
2022/05/18 04:22:17;;;;;;;44.27;29.40;;;;;;;-145.18;100.00;46656.50;4970447;28;20046;-79
2022/05/18 04:24:43;;;;;;;40.47;28.00;;;;;;;-145.18;100.00;46660.41;4970579;28;20043;-78
2022/05/18 04:27:10;;;;;;;35.77;27.20;;;;;;;-145.18;100.00;46652.59;4970467;28;20411;-79
2022/05/18 04:29:36;;;;;;;41.07;27.83;;;;;;;-145.18;100.00;46652.59;4979208;28;20058;-76
2022/05/18 04:32:01;;;;;;;40.73;28.10;;;;;;;-145.18;100.00;46650.63;4986613;28;20041;-76
2022/05/18 04:34:26;;;;;;;44.17;27.60;;;;;;;-145.18;100.00;46648.69;4993033;28;20039;-77
2022/05/18 04:36:52;;;;;;;36.00;28.33;;;;;;;-145.18;100.00;46654.53;4989169;28;20030;-76
2022/05/18 04:39:18;;;;;;;35.87;27.63;;;;;;;-145.18;100.00;46652.59;4992518;28;20558;-76
2022/05/18 04:41:43;;;;;;;47.97;29.03;;;;;;;-145.18;100.00;46656.50;4993031;28;20530;-76
2022/05/18 04:44:09;;;;;;;43.20;28.90;;;;;;;-145.18;100.00;46652.59;4992544;28;20038;-76
2022/05/18 04:46:34;;;;;;;40.10;28.43;;;;;;;-145.18;100.00;46656.50;4992932;28;20034;-75
2022/05/18 04:49:00;;;;;;;40.30;27.90;;;;;;;-145.18;100.00;46660.41;4992672;28;20069;-78
2022/05/18 04:51:25;;;;;;;38.37;27.03;;;;;;;-145.18;100.00;46662.34;4992621;28;20030;-76
2022/05/18 04:53:51;;;;;;;35.93;27.10;;;;;;;-145.18;100.00;46664.31;4992821;28;20042;-76
2022/05/18 04:56:16;;;;;;;40.80;28.90;;;;;;;-145.18;100.00;46664.31;4993676;28;20030;-76
2022/05/18 04:58:41;;;;;;;42.03;27.33;;;;;;;-145.18;100.00;46668.22;4992761;28;20394;-76
2022/05/18 05:01:09;;;;;;;34.13;26.03;;;;;;;-145.18;100.00;46670.16;4993315;28;20426;-75
2022/05/18 05:03:34;;;;;;;32.57;25.10;;;;;;;-145.18;100.00;46664.31;4992514;28;20133;-75
2022/05/18 05:06:04;;;;;;;35.73;25.27;;;;;;;-145.18;100.00;46668.22;4992505;28;20037;-75
2022/05/18 05:08:30;;;;;;;37.07;26.23;;;;;;;-145.18;100.00;46668.22;4992644;28;20096;-75
2022/05/18 05:10:56;;;;;;;43.27;26.47;;;;;;;-145.18;100.00;46668.22;4992989;28;20821;-76
2022/05/18 05:13:22;;;;;;;34.87;25.77;;;;;;;-145.18;100.00;46674.06;4974423;28;20635;-75
2022/05/18 05:15:47;;;;;;;37.77;25.30;;;;;;;-145.18;100.00;46672.13;4992959;28;20124;-75
2022/05/18 05:18:12;;;;;;;34.87;25.73;;;;;;;-145.18;100.00;46670.16;4992644;28;20049;-75
2022/05/18 05:20:38;;;;;;;43.20;28.07;;;;;;;-145.18;100.00;46672.13;4992749;28;20106;-75
2022/05/18 05:23:04;;;;;;;39.50;25.40;;;;;;;-145.18;100.00;46677.97;4992465;28;20022;-76
2022/05/18 05:25:29;;;;;;;38.50;25.43;;;;;;;-145.18;100.00;46674.06;4992898;28;20648;-75
2022/05/18 05:27:55;;;;;;;39.57;26.13;;;;;;;-145.18;100.00;46672.13;4992673;28;20061;-75
2022/05/18 05:30:21;;;;;;;37.43;26.93;;;;;;;-145.18;100.00;46676.03;4992978;28;20531;-75
2022/05/18 05:32:46;;;;;;;36.20;26.63;;;;;;;-145.18;100.00;46679.94;4992290;28;20037;-75
2022/05/18 05:35:13;;;;;;;35.07;25.93;;;;;;;-145.18;100.00;46674.06;4992450;28;20069;-75
2022/05/18 05:37:38;;;;;;;37.93;25.90;;;;;;;-145.18;100.00;46679.94;4992054;28;20408;-75
2022/05/18 05:40:06;;;;;;;35.60;25.67;;;;;;;-145.18;100.00;46679.94;4992527;28;20054;-75
2022/05/18 05:42:31;;;;;;;36.80;25.50;;;;;;;-145.18;100.00;46677.97;4992147;28;20034;-75
2022/05/18 05:44:57;;;;;;;31.57;25.27;;;;;;;-145.18;100.00;46679.94;4990340;28;20394;-75
2022/05/18 05:47:22;;;;;;;35.13;25.40;;;;;;;-145.18;100.00;46676.03;4990329;28;20038;-75
2022/05/18 05:49:48;;;;;;;36.27;25.60;;;;;;;-145.18;100.00;46677.97;4974406;28;20034;-74
2022/05/18 05:52:13;;;;;;;34.47;24.37;;;;;;;-145.18;100.00;46679.94;4991008;28;20045;-75
2022/05/18 05:54:38;;;;;;;35.50;25.20;;;;;;;-145.18;100.00;46679.94;4990823;28;20027;-75
2022/05/18 05:57:06;;;;;;;36.37;25.10;;;;;;;-145.18;100.00;46681.88;4992051;28;20027;-76
2022/05/18 05:59:32;;;;;;;43.33;25.73;;;;;;;-145.18;100.00;46679.94;4991660;28;20038;-75
2022/05/18 06:01:59;;;;;;;32.97;23.57;;;;;;;-145.18;100.00;46679.94;4992048;28;20031;-75
2022/05/18 06:04:25;;;;;;;38.97;24.37;;;;;;;-145.18;100.00;46668.22;4991525;28;20042;-75
2022/05/18 06:06:50;;;;;;;38.03;23.83;;;;;;;-145.18;100.00;46652.59;4991463;28;20470;-75
2022/05/18 06:09:15;;;;;;;38.73;23.77;;;;;;;-145.18;100.00;46654.53;4991529;28;20045;-75
2022/05/18 06:11:41;;;;;;;34.63;24.47;;;;;;;-145.18;100.00;46648.69;4990886;28;20030;-75
2022/05/18 06:14:06;;;;;;;36.27;24.90;;;;;;;-145.18;100.00;46656.50;4991370;28;20466;-75
2022/05/18 06:16:32;;;;;;;30.00;23.30;;;;;;;-145.18;100.00;46656.50;4991413;28;20045;-75
2022/05/18 06:18:59;;;;;;;33.10;25.13;;;;;;;-145.18;100.00;46660.41;4991369;28;20030;-74
2022/05/18 06:21:25;;;;;;;35.60;25.40;;;;;;;-145.18;100.00;46660.41;4991729;28;20529;-75
2022/05/18 06:23:50;;;;;;;33.27;23.83;;;;;;;-145.18;100.00;46656.50;4991107;28;20034;-75
2022/05/18 06:26:16;;;;;;;35.77;23.47;;;;;;;-145.18;100.00;46654.53;4991405;28;20517;-75
2022/05/18 06:28:41;;;;;;;35.23;23.80;;;;;;;-145.18;100.00;46636.94;4991023;28;20104;-75
2022/05/18 06:31:07;;;;;;;36.50;23.63;;;;;;;-145.18;100.00;46621.31;4991750;28;20026;-75
2022/05/18 06:33:33;;;;;;;30.53;23.77;;;;;;;-145.18;100.00;46648.69;4990095;28;20149;-75
2022/05/18 06:35:58;;;;;;;36.47;22.83;;;;;;;-145.18;100.00;46578.34;4991111;28;20034;-75
2022/05/18 06:38:24;;;;;;;32.23;22.23;;;;;;;-145.18;100.00;46566.63;4991254;28;20395;-75
2022/05/18 06:43:33;;;;;;;35.17;23.23;;;;;;;-145.18;100.00;46529.53;4990594;28;20080;-75
2022/05/18 06:46:00;;;;;;;30.77;21.53;;;;;;;-145.18;100.00;46541.25;4990894;28;20069;-75
2022/05/18 06:48:25;;;;;;;28.47;21.67;;;;;;;-145.18;100.00;46531.47;4990888;28;20026;-75
2022/05/18 06:50:51;;;;;;;34.00;23.17;;;;;;;-145.18;100.00;46537.34;4990408;28;20038;-74
2022/05/18 06:53:16;;;;;;;30.10;20.70;;;;;;;-145.18;100.00;46527.56;4973497;28;20060;-74
2022/05/18 06:55:42;;;;;;;25.30;18.73;;;;;;;-145.18;100.00;46537.34;4979113;28;20101;-74
2022/05/18 06:58:08;;;;;;;30.37;19.60;;;;;;;-145.18;100.00;46551.00;4971313;28;20038;-75
2022/05/18 07:00:33;;;;;;;31.50;19.30;;;;;;;-145.18;100.00;46549.06;4971500;28;20046;-74
2022/05/18 07:02:59;;;;;;;29.23;17.23;;;;;;;-145.18;100.00;46566.63;4970984;28;20062;-74
2022/05/18 07:05:24;;;;;;;29.77;16.90;;;;;;;-145.18;100.00;46556.88;4971661;28;20391;-74
2022/05/18 07:07:50;;;;;;;23.50;15.67;;;;;;;-145.18;100.00;46568.59;4971005;28;20043;-74
2022/05/18 07:10:15;;;;;;;19.97;13.03;;;;;;;-145.18;100.00;46558.81;4971557;28;20158;-74
2022/05/18 07:12:41;;;;;;;18.50;10.33;;;;;;;-145.18;100.00;46549.06;4971018;28;20499;-74
2022/05/18 07:15:07;;;;;;;17.10;11.63;;;;;;;-145.18;100.00;46543.19;4971509;28;20066;-74
2022/05/18 07:17:33;;;;;;;19.07;11.30;;;;;;;-145.18;100.00;46543.19;4990387;28;20061;-74
2022/05/18 07:19:59;;;;;;;15.20;11.07;;;;;;;-145.18;100.00;46531.47;5009492;28;20478;-73
2022/05/18 07:22:24;;;;;;;18.13;9.87;;;;;;;-145.18;100.00;46531.47;5010078;28;20038;-74
2022/05/18 07:24:50;;;;;;;13.80;9.20;;;;;;;-145.18;100.00;46531.47;5009927;28;20033;-73
2022/05/18 07:27:16;;;;;;;19.00;8.90;;;;;;;-145.18;100.00;46533.44;4992478;28;20498;-73
2022/05/18 07:29:41;;;;;;;15.27;9.20;;;;;;;-145.18;100.00;46537.34;5010041;28;20088;-73
2022/05/18 07:32:13;;;;;;;18.30;8.80;;;;;;;-145.18;100.00;46529.53;5009982;28;20041;-73
2022/05/18 07:34:43;;;;;;;12.80;8.53;;;;;;;-145.18;100.00;46529.53;4998152;28;20082;-74
2022/05/18 07:37:09;;;;;;;16.53;8.67;;;;;;;-145.18;100.00;46535.38;4981617;28;20026;-73
2022/05/18 07:39:35;;;;;;;15.20;7.97;;;;;;;-145.18;100.00;46541.25;4953660;28;20114;-73
2022/05/18 07:42:01;;;;;;;15.53;8.20;;;;;;;-145.18;100.00;46531.47;4970983;28;20026;-74
2022/05/18 07:44:28;;;;;;;14.67;8.87;;;;;;;-145.18;100.00;46537.34;4970517;28;20470;-73
2022/05/18 07:46:54;;;;;;;10.97;8.13;;;;;;;-145.18;100.00;46529.53;4970708;28;20206;-74
2022/05/18 07:49:19;;;;;;;16.07;8.17;;;;;;;-145.18;100.00;46531.47;4970645;28;20038;-73
2022/05/18 07:51:47;;;;;;;16.90;7.77;;;;;;;-145.18;100.00;46537.34;4970589;28;20037;-73
2022/05/18 07:54:14;;;;;;;10.50;7.40;;;;;;;-145.18;100.00;46535.38;4970322;28;20035;-73
2022/05/18 07:56:43;;;;;;;18.37;8.67;;;;;;;-145.18;100.00;46539.28;4970858;28;20082;-74
2022/05/18 07:59:11;;;;;;;16.17;7.67;;;;;;;-145.18;100.00;46539.28;4970485;28;20475;-73
2022/05/18 08:01:39;;;;;;;17.43;7.90;;;;;;;-145.18;100.00;46535.38;4971021;28;20109;-73
2022/05/18 08:04:05;;;;;;;12.57;6.53;;;;;;;-145.18;100.00;46537.34;4978566;28;20133;-73
2022/05/18 08:06:30;;;;;;;15.10;7.00;;;;;;;-145.18;100.00;46537.34;4985152;28;20462;-73
2022/05/18 08:08:56;;;;;;;17.70;7.97;;;;;;;-145.18;100.00;46539.28;4990461;28;20484;-73
2022/05/18 08:16:50;;;;;;;12.00;7.57;;;;;;;-145.18;100.00;46547.09;4994015;28;20128;-73
2022/05/18 08:19:16;;;;;;;11.67;7.40;;;;;;;-145.18;100.00;46537.34;4988099;28;20762;-73
2022/05/18 08:21:42;;;;;;;14.63;7.70;;;;;;;-145.18;100.00;46537.34;4989462;28;20030;-73
2022/05/18 08:24:08;;;;;;;15.47;8.07;;;;;;;-145.18;100.00;46533.44;4975943;28;20101;-73
2022/05/18 08:26:34;;;;;;;16.23;7.60;;;;;;;-145.18;100.00;46537.34;4993809;28;20037;-73
2022/05/18 08:29:01;;;;;;;11.27;7.00;;;;;;;-145.18;100.00;46547.09;4988322;28;20039;-73
2022/05/18 08:31:27;;;;;;;10.53;7.30;;;;;;;-145.18;100.00;46539.28;4993620;28;20030;-73
2022/05/18 08:33:55;;;;;;;16.33;8.23;;;;;;;-145.18;100.00;46539.28;4975602;28;20431;-73
2022/05/18 08:36:22;;;;;;;11.10;6.93;;;;;;;-145.18;100.00;46541.25;4993182;28;20067;-73
2022/05/18 08:38:47;;;;;;;16.73;6.87;;;;;;;-145.18;100.00;46541.25;4958495;28;20427;-73
2022/05/18 08:41:18;;;;;;;17.43;6.80;;;;;;;-145.18;100.00;46531.47;4993348;28;20026;-73
2022/05/18 08:43:47;;;;;;;15.03;6.83;;;;;;;-145.18;100.00;46523.66;4993060;28;20023;-73
2022/05/18 08:46:15;;;;;;;13.87;6.80;;;;;;;-145.18;100.00;46527.56;4993133;28;20037;-73
2022/05/18 08:49:04;;;;;;;14.27;6.33;;;;;;;-145.18;100.00;46541.25;4992938;28;20041;-73
2022/05/18 08:52:03;;;;;;;13.57;6.80;;;;;;;-145.18;100.00;46539.28;4993240;28;20027;-73
2022/05/18 08:54:28;;;;;;;16.50;5.90;;;;;;;-145.18;100.00;46533.44;4992779;28;20486;-72
2022/05/18 08:56:58;;;;;;;12.70;6.00;;;;;;;-145.18;100.00;46529.53;4992827;28;20033;-73
2022/05/18 08:59:27;;;;;;;12.03;6.63;;;;;;;-145.18;100.00;46529.53;4992780;28;20049;-73
2022/05/18 09:01:57;;;;;;;10.40;6.20;;;;;;;-145.18;100.00;46539.28;4993003;28;20027;-73
2022/05/18 09:04:43;;;;;;;10.57;6.13;;;;;;;-145.18;100.00;46539.28;4987918;28;20754;-73
2022/05/18 09:07:13;;;;;;;11.00;6.40;;;;;;;-145.18;100.00;46523.66;5009939;28;20041;-72
2022/05/18 09:12:37;;;;;;;12.20;6.27;;;;;;;-145.18;100.00;46523.66;4979439;28;20879;-73
2022/05/18 09:15:04;;;;;;;15.07;6.43;;;;;;;-145.18;100.00;46519.75;4968527;28;20042;-72
2022/05/18 09:17:33;;;;;;;15.63;6.10;;;;;;;-145.18;100.00;46527.56;4942982;28;20419;-73
2022/05/18 09:20:25;;;;;;;12.57;6.37;;;;;;;-145.18;100.00;46521.72;4991000;28;20053;-73
2022/05/18 09:23:05;;;;;;;12.67;6.17;;;;;;;-145.18;100.00;46527.56;4991764;28;20038;-73
2022/05/18 09:25:36;;;;;;;14.97;6.83;;;;;;;-145.18;100.00;46543.19;4991973;28;20049;-73
2022/05/18 09:28:40;;;;;;;11.40;5.63;;;;;;;-145.18;100.00;46535.38;4991612;28;20058;-73
2022/05/18 09:31:10;;;;;;;16.60;6.20;;;;;;;-145.18;100.00;46535.38;4959747;28;20038;-72
2022/05/18 09:33:46;;;;;;;10.83;6.43;;;;;;;-145.18;100.00;46537.34;4991667;28;20084;-73
2022/05/18 09:36:33;;;;;;;11.83;5.30;;;;;;;-145.18;100.00;46543.19;4992039;28;20478;-72
2022/05/18 09:39:04;;;;;;;10.57;6.23;;;;;;;-145.18;100.00;46660.41;4991855;28;20080;-72
2022/05/18 09:41:41;;;;;;;11.23;6.60;;;;;;;-145.18;100.00;46619.38;4991978;28;20073;-72
2022/05/18 09:44:17;;;;;;;15.73;6.07;;;;;;;-145.18;100.00;46629.13;4991856;28;20027;-72
2022/05/18 09:46:45;;;;;;;11.17;6.43;;;;;;;-145.18;100.00;46715.09;4991894;28;20041;-72
2022/05/18 09:49:20;;;;;;;13.20;6.30;;;;;;;-145.18;100.00;46652.59;4991445;28;20430;-73
2022/05/18 09:51:46;;;;;;;18.30;7.43;;;;;;;-145.18;100.00;46537.34;4992108;28;20106;-72
2022/05/18 09:54:12;;;;;;;16.13;7.03;;;;;;;-145.18;100.00;46742.44;4984889;28;20164;-72
2022/05/18 09:56:50;;;;;;;15.30;7.40;;;;;;;-145.18;100.00;46892.84;4972464;28;20109;-73
2022/05/18 09:59:20;;;;;;;14.83;6.93;;;;;;;-145.18;100.00;46603.75;4986657;28;20092;-73
2022/05/18 10:07:30;;;;;;;11.73;7.90;;;;;;;-145.18;100.00;47088.19;4992099;28;20073;-73
2022/05/18 10:10:12;;;;;;;16.20;8.33;;;;;;;-145.18;100.00;46656.50;4975256;28;20509;-73
2022/05/18 10:13:00;;;;;;;13.27;8.03;;;;;;;-145.18;100.00;46967.09;4971867;28;20031;-73
2022/05/18 10:15:25;;;;;;;14.70;7.87;;;;;;;-145.18;100.00;46754.16;4972180;28;20037;-73
2022/05/18 10:17:57;;;;;;;16.13;7.67;;;;;;;-145.18;100.00;46719.00;4972244;28;20030;-73
2022/05/18 10:20:33;;;;;;;14.20;8.03;;;;;;;-145.18;100.00;46642.81;4978847;28;20041;-73
2022/05/18 10:23:00;;;;;;;11.43;7.57;;;;;;;-145.18;100.00;46713.13;4980685;28;20026;-73
2022/05/18 10:25:32;;;;;;;11.07;7.53;;;;;;;-145.18;100.00;46703.38;4970393;28;20077;-72
2022/05/18 10:28:01;;;;;;;17.17;7.77;;;;;;;-145.18;100.00;47135.09;4971167;28;20157;-73
2022/05/18 10:30:34;;;;;;;12.60;7.57;;;;;;;-145.18;100.00;46543.19;4971152;28;20041;-72
2022/05/18 10:33:03;;;;;;;14.77;7.87;;;;;;;-145.18;100.00;46990.53;4971732;28;20027;-73
2022/05/18 10:35:48;;;;;;;12.23;7.80;;;;;;;-145.18;100.00;47031.53;4971563;28;20037;-73
2022/05/18 10:38:27;;;;;;;15.93;8.13;;;;;;;-145.18;100.00;47062.81;4971887;28;20030;-73
2022/05/18 10:41:07;;;;;;;14.73;9.00;;;;;;;-145.18;100.00;47008.09;4971307;28;20035;-72
2022/05/18 10:43:37;;;;;;;14.27;8.83;;;;;;;-145.18;100.00;46984.66;4971572;28;20058;-73
2022/05/18 10:46:08;;;;;;;9.40;7.10;;;;;;;-145.18;100.00;46996.38;4971751;28;20105;-73
2022/05/18 10:48:33;;;;;;;19.03;8.43;;;;;;;-145.18;100.00;46961.22;4971788;28;20069;-72
2022/05/18 10:51:04;;;;;;;14.37;7.80;;;;;;;-145.18;100.00;46957.31;4971765;28;20054;-73
2022/05/18 10:53:42;;;;;;;12.27;7.20;;;;;;;-145.18;100.00;47004.19;4970951;28;20602;-73
2022/05/18 10:56:08;;;;;;;10.73;7.37;;;;;;;-145.18;100.00;46990.53;4971720;28;20388;-73
2022/05/18 10:59:08;;;;;;;12.57;7.97;;;;;;;-145.18;100.00;47033.50;4971432;28;20023;-73
2022/05/18 11:01:50;;;;;;;15.23;6.70;;;;;;;-145.18;100.00;47070.63;4971455;28;20023;-73
2022/05/18 11:04:21;;;;;;;15.67;8.57;;;;;;;-145.18;100.00;47144.84;4970787;28;20547;-72
2022/05/18 11:06:47;;;;;;;19.00;8.93;;;;;;;-145.18;100.00;47119.47;4977124;28;20070;-73
2022/05/18 11:09:17;;;;;;;16.87;7.97;;;;;;;-145.18;100.00;47121.41;4989947;28;20031;-72
2022/05/18 11:12:21;;;;;;;13.73;8.23;;;;;;;-145.18;100.00;47094.06;4989891;28;20037;-72
2022/05/18 11:14:59;;;;;;;16.70;8.73;;;;;;;-145.18;100.00;47055.00;4982692;28;20037;-72
2022/05/18 11:17:54;;;;;;;13.73;8.20;;;;;;;-145.18;100.00;47015.91;4974696;28;20077;-73
2022/05/18 11:20:44;;;;;;;15.02;7.85;;;;;;;-145.18;100.00;47019.81;4969903;28;20038;-73
2022/05/18 11:23:21;;;;;;;11.40;7.57;;;;;;;-145.18;100.00;47004.19;4976803;28;20268;-72
2022/05/18 11:25:47;;;;;;;12.70;7.40;;;;;;;-145.18;100.00;47017.88;4984383;28;20030;-72